Tiempo atmosférico en la estación meteorológica de Ainsa, Huesca (610 m.)



Fecha
DESCASC
Temp. máxima en grados centígrados (hora)
DESCASC
Temp. mínima en grados centígrados (hora)
DESCASC
Temp. media en grados centígrados
DESCASC
Racha de viento máxima en m/sg (hora)
DESCASC
Velocidad máxima media en intervalos de 10 minutos(hora)
DESCASC
Precipitaciones diarias en mm
DESCASC
Precipitaciones de 00:00 a 06:00 en mm
DESCASC
Precipitaciones de 06:00 a 12:00 en mm
DESCASC
Precipitaciones de 12:00 a 18:00 en mm
DESCASC
Precipitaciones de 18:00 a 24:00 en mm
DESCASC
06-12-2018 8 (16:00) 0.1 (08:20) 4.1 5 (00:20) 3.33 (13:40) 0.2 0 0 0 0.2
05-12-2018 17.3 (15:40) 2.9 (08:30) 10.1 4.72 (23:30) 3.33 (23:30) 0 0 0 0 0
04-12-2018 16.1 (14:50) 2.1 (07:30) 9.1 4.17 (08:20) 3.33 (08:20) 0.2 0.2 0 0 0
03-12-2018 12 (15:20) 1.8 (00:00) 6.9 4.72 (23:59) 3.06 (21:40) 0 0 0 0 0
02-12-2018 13.3 (14:40) 2.4 (00:00) 7.9 3.89 (09:10) 3.06 (09:10) 0 0 0 0 0
01-12-2018 11.1 (15:00) 0.8 (00:00) 6 5 (05:40) 4.17 (05:00) 0 0 0 0 0
30-11-2018 15.5 (15:20) 3.9 (00:00) 9.7 9.17 (15:40) 5.83 (17:30) 0 0 0 0 0
29-11-2018 15.2 (15:30) 0.3 (00:00) 7.7 4.44 (19:10) 3.61 (17:40) 0 0 0 0 0
28-11-2018 12.9 (15:50) 0.1 (00:00) 6.5 4.72 (00:40) 3.89 (00:40) 0 0 0 0 0
27-11-2018 13 (13:10) -0.2 (00:00) 6.4 6.39 (01:50) 5 (01:50) 0 0 0 0 0
26-11-2018 14.2 (15:10) 2.8 (00:00) 8.5 9.72 (18:10) 6.94 (18:10) 0.2 0 0.2 0 0
25-11-2018 12.1 (16:40) 1.6 (00:00) 6.9 4.72 (21:10) 3.89 (21:10) 1.6 0 1.6 0 0
24-11-2018 10.7 (16:20) -0.6 (-00:0) 5 5 (22:30) 4.17 (22:30) 0.2 0 0.2 0 0
23-11-2018 8.2 (15:50) 2.4 (00:00) 5.3 3.89 (22:40) 2.78 (04:20) 3.4 0 1.6 1.6 0.2
22-11-2018 12.7 (16:00) 4.2 (00:00) 8.4 3.61 (23:40) 2.78 (23:40) 0.4 0.4 0 0 0
21-11-2018 11.7 (13:50) 4.5 (00:00) 8.1 4.17 (04:10) 3.06 (04:10) 3.6 0 0 3.2 0.4
20-11-2018 5.5 (11:40) 2.8 (00:00) 4.1 5.28 (16:00) 3.61 (02:20) 4.6 0 0.2 4.2 0.2
19-11-2018 13.8 (13:50) 4.5 (00:00) 9.2 8.06 (17:40) 5 (17:40) 0.2 0 0 0 0.2
18-11-2018 9.5 (00:00) 7.1 (00:00) 8.3 3.61 (08:20) 2.78 (22:40) 11.4 7.6 2.8 1 0
17-11-2018 14.4 (14:20) 7.8 (00:00) 11.1 8.06 (16:00) 5.83 (15:50) 6.2 0 0 0 6.2
16-11-2018 17.8 (14:00) 7.1 (00:00) 12.4 3.89 (04:50) 3.06 (15:20) 0 0 0 0 0
15-11-2018 15.8 (15:10) 8.7 (00:00) 12.3 4.17 (00:50) 3.33 (04:10) 0 0 0 0 0
14-11-2018 18.6 (13:50) 7.7 (00:00) 13.2 5.28 (16:40) 3.61 (01:10) 0 0 0 0 0
13-11-2018 19.2 (15:30) 7.2 (00:00) 13.2 4.72 (22:30) 3.89 (14:10) 0 0 0 0 0
12-11-2018 20.1 (15:20) 10.5 (00:00) 15.3 4.44 (10:30) 3.33 (10:30) 0 0 0 0 0
11-11-2018 15.9 (15:50) 7.2 (00:00) 11.5 6.11 (20:10) 5 (20:20) 0 0 0 0 0
10-11-2018 10.6 (14:50) 7.1 (00:00) 8.9 3.89 (20:20) 2.5 (05:30) 3 0.2 0.4 0.6 1.8
09-11-2018 16.8 (15:10) 6.8 (00:00) 11.8 5.83 (02:50) 4.17 (16:20) 15.6 15.6 0 0 0

Gráficas

Temp. máximas Temp. mínimas Temp. medias Precipitaciones Rachas de viento máximas Velocidades máximas media en intervalos de 10 minutos

Datos horarios

Fecha y hora oficial Temperatura (ºC) Velocidad del viento (km/h) Dirección del viento Racha (km/h) Dirección de racha Precipitación (mm) Presión (hPa) Tendencia (hPa) Humedad (%)
2018-12-08 23:00:00 3.7 6 Noroeste 16 Norte 0 -- -- 94
2018-12-08 22:00:00 4.1 7 Noroeste 17 Norte 0 -- -- 94
2018-12-08 21:00:00 4.6 6 Noroeste 12 Noroeste 0 -- -- 92
2018-12-08 20:00:00 5.6 8 Noroeste 15 Noroeste 0 -- -- 88
2018-12-08 19:00:00 6.5 7 Norte 13 Norte 0 -- -- 86
2018-12-08 18:00:00 8.4 8 Norte 12 Norte 0 -- -- 79
2018-12-08 17:00:00 11.3 10 Sudeste 13 Sudeste 0 -- -- 67
2018-12-08 16:00:00 12.6 7 Sudeste 9 Sudeste 0 -- -- 58
2018-12-08 15:00:00 12.1 6 Sudeste 9 Sur 0 -- -- 63
2018-12-08 14:00:00 10.9 8 Sudeste 13 Sudeste 0 -- -- 66
2018-12-08 13:00:00 9.1 5 Sudeste 8 Este 0 -- -- 83
2018-12-08 12:00:00 6.8 3 Sudoeste 7 Este 0 -- -- 90
2018-12-08 11:00:00 5 2 Este 8 Norte 0 -- -- 100
2018-12-08 10:00:00 2.2 2 Noroeste 13 Norte 0 -- -- 100
2018-12-08 09:00:00 0.7 4 Norte 11 Norte 0 -- -- 100
2018-12-08 08:00:00 0.8 6 Noroeste 13 Norte 0.2 -- -- 100
2018-12-08 07:00:00 1.1 9 Norte 14 Norte 0 -- -- 100
2018-12-08 06:00:00 1.4 9 Norte 14 Norte 0 -- -- 100
2018-12-08 05:00:00 1.6 14 Norte 19 Norte 0 -- -- 100
2018-12-08 04:00:00 1.9 6 Norte 16 Norte 0 -- -- 100
2018-12-08 03:00:00 1.6 8 Norte 18 Norte 0 -- -- 100
2018-12-08 02:00:00 2 17 Norte 20 Norte 0 -- -- 100
2018-12-08 01:00:00 1.5 9 Norte 13 Norte 0 -- -- 100
2018-12-08 00:00:00 1.6 4 Norte 10 Noroeste 0 -- -- 100
2018-12-07 23:00:00 1.7 5 Noroeste 10 Noroeste 0 -- -- 100
2018-12-07 22:00:00 2.6 4 Noroeste 10 Norte 0 -- -- 100
2018-12-07 21:00:00 3.2 4 Noroeste 10 Oeste 0 -- -- 100
2018-12-07 20:00:00 4 4 Noroeste 6 Oeste 0 -- -- 100
2018-12-07 19:00:00 4.5 4 Noroeste 8 Noroeste 0 -- -- 100
2018-12-07 18:00:00 4.9 3 Norte 8 Noroeste 0 -- -- 100
2018-12-07 17:00:00 5.3 0 Calma 8 Sudeste 0 -- -- 100
2018-12-07 16:00:00 5.4 3 Sudeste 15 Sudeste 0 -- -- 100
2018-12-07 15:00:00 5.4 8 Sudeste 15 Sudeste 0 -- -- 100
2018-12-07 14:00:00 4.7 10 Sudeste 18 Sudeste 0 -- -- 100
2018-12-07 13:00:00 4.4 7 Sudeste 15 Sudeste 0 -- -- 100
2018-12-07 12:00:00 3 6 Sudeste 12 Sudeste 0 -- -- 100
2018-12-07 11:00:00 2 4 Sudeste 7 Sudeste 0 -- -- 100
2018-12-07 10:00:00 0.7 0 Calma 6 Este 0.2 -- -- 100
2018-12-07 09:00:00 0.3 3 Noroeste 6 Oeste 0 -- -- 100
2018-12-07 08:00:00 0.3 0 Calma 5 Este 0 -- -- 100
2018-12-07 07:00:00 0.5 2 Sudeste 8 Oeste 0 -- -- 100
2018-12-07 06:00:00 0.8 3 Oeste 9 Oeste 0 -- -- 100
2018-12-07 05:00:00 1.7 0 Calma 9 Nordeste 0 -- -- 100
2018-12-07 04:00:00 2 2 Nordeste 9 Oeste 0 -- -- 100
2018-12-07 03:00:00 2.7 2 Oeste 6 Norte 0.2 -- -- 100
2018-12-07 02:00:00 3.1 3 Noroeste 8 Oeste 0 -- -- 100
2018-12-07 01:00:00 3.5 3 Sur 10 Este 0 -- -- 100
2018-12-07 00:00:00 3.8 2 Nordeste 10 Norte 0 -- -- 100
2018-12-06 23:00:00 4.5 2 Oeste 6 Oeste 0 -- -- 100
2018-12-06 22:00:00 5 3 Noroeste 7 Noroeste 0 -- -- 100
2018-12-06 21:00:00 5.3 0 Calma 6 Noroeste 0 -- -- 100
2018-12-06 20:00:00 5.4 2 Oeste 6 Norte 0 -- -- 100
2018-12-06 19:00:00 5.3 0 Calma 8 Nordeste 0.2 -- -- 100
2018-12-06 18:00:00 6 3 Norte 8 Este 0 -- -- 100
2018-12-06 17:00:00 7 6 Este 15 Sudeste 0 -- -- 100
2018-12-06 16:00:00 8 5 Sudeste 15 Sudeste 0 -- -- 97
2018-12-06 15:00:00 7.4 12 Sudeste 15 Sudeste 0 -- -- 97
2018-12-06 14:00:00 6.5 9 Sudeste 16 Sudeste 0 -- -- 99
2018-12-06 13:00:00 6.1 5 Sudeste 12 Sudeste 0 -- -- 100
2018-12-06 12:00:00 4.6 9 Sudeste 15 Sudeste 0 -- -- 100
2018-12-06 11:00:00 3.2 11 Sudeste 15 Sudeste 0 -- -- 100
2018-12-06 10:00:00 2 0 Calma 6 Noroeste 0 -- -- 100
2018-12-06 09:00:00 0.4 3 Nordeste 7 Noroeste 0 -- -- 100
2018-12-06 08:00:00 0.7 0 Calma 6 Sudeste 0 -- -- 100
2018-12-06 07:00:00 1.3 0 Calma 8 Noroeste 0 -- -- 99
2018-12-06 06:00:00 1.9 5 Norte 8 Norte 0 -- -- 99
2018-12-06 05:00:00 2.7 2 Norte 13 Noroeste 0 -- -- 98
2018-12-06 04:00:00 3.1 6 Noroeste 13 Noroeste 0 -- -- 97
2018-12-06 03:00:00 3.5 9 Norte 13 Norte 0 -- -- 97
2018-12-06 02:00:00 4.3 6 Noroeste 15 Noroeste 0 -- -- 94
2018-12-06 01:00:00 4.6 9 Noroeste 18 Norte 0 -- -- 96
2018-12-06 00:00:00 5.5 7 Oeste 17 Noroeste 0 -- -- 96
2018-12-05 23:00:00 6 8 Noroeste 13 Norte 0 -- -- 97
2018-12-05 22:00:00 6.3 9 Norte 12 Norte 0 -- -- 94
2018-12-05 21:00:00 8 7 Noroeste 12 Noroeste 0 -- -- 90
2018-12-05 20:00:00 8.7 5 Noroeste 10 Noroeste 0 -- -- 91
2018-12-05 19:00:00 10.2 5 Oeste 14 Noroeste 0 -- -- 86
2018-12-05 18:00:00 12.1 8 Noroeste 11 Noroeste 0 -- -- 76
2018-12-05 17:00:00 15.6 4 Sudeste 7 Sur 0 -- -- 60
2018-12-05 16:00:00 17.1 0 Calma 5 Sur 0 -- -- 54
2018-12-05 15:00:00 16.8 0 Calma 9 Sur 0 -- -- 57
2018-12-05 14:00:00 15.3 2 Sudeste 6 Sur 0 -- -- 60
2018-12-05 13:00:00 12.7 0 Calma 5 Este 0 -- -- 71
2018-12-05 12:00:00 10.6 2 Sudoeste 6 Sudeste 0 -- -- 80
2018-12-05 11:00:00 8.2 2 Oeste 5 Norte 0 -- -- 90
2018-12-05 10:00:00 4.6 5 Norte 6 Norte 0 -- -- 99
2018-12-05 09:00:00 3.1 4 Norte 8 Noroeste 0 -- -- 100
2018-12-05 08:00:00 3.6 5 Noroeste 10 Noroeste 0 -- -- 99
2018-12-05 07:00:00 3.5 5 Norte 15 Noroeste 0 -- -- 99
2018-12-05 06:00:00 3.9 8 Norte 10 Norte 0 -- -- 99
2018-12-05 05:00:00 3.9 7 Noroeste 14 Norte 0 -- -- 99
2018-12-05 04:00:00 4.4 9 Noroeste 13 Noroeste 0 -- -- 97
2018-12-05 03:00:00 5 6 Noroeste 11 Norte 0 -- -- 98
2018-12-05 02:00:00 5 9 Norte 14 Norte 0 -- -- 96
2018-12-05 01:00:00 5.6 9 Noroeste 14 Noroeste 0 -- -- 95
2018-12-05 00:00:00 5.9 9 Noroeste 14 Noroeste 0 -- -- 97
2018-12-04 23:00:00 6.2 7 Noroeste 13 Noroeste 0 -- -- 95
2018-12-04 22:00:00 7.3 8 Noroeste 14 Noroeste 0 -- -- 92
2018-12-04 21:00:00 7.9 9 Noroeste 14 Noroeste 0 -- -- 91
2018-12-04 20:00:00 8.7 8 Norte 11 Noroeste 0 -- -- 89
2018-12-04 19:00:00 9.5 10 Oeste 13 Oeste 0 -- -- 88
2018-12-04 18:00:00 11.5 7 Norte 10 Noroeste 0 -- -- 82
2018-12-04 17:00:00 13.6 10 Sudeste 12 Sudeste 0 -- -- 74
2018-12-04 16:00:00 14.7 8 Sudeste 9 Sudeste 0 -- -- 65
2018-12-04 15:00:00 16 4 Sudeste 6 Sudeste 0 -- -- 63
2018-12-04 14:00:00 15.6 3 Este 5 Este 0 -- -- 62
2018-12-04 13:00:00 12.2 0 Calma 8 Sur 0 -- -- 71
2018-12-04 12:00:00 9.1 5 Sudeste 9 Sudeste 0 -- -- 87
2018-12-04 11:00:00 6.6 3 Sudeste 6 Sudeste 0 -- -- 91
2018-12-04 10:00:00 5.5 0 Calma 12 Norte 0 -- -- 100
2018-12-04 09:00:00 3.4 9 Norte 15 Norte 0 -- -- 100
2018-12-04 08:00:00 2.7 5 Norte 14 Noroeste 0 -- -- 100
2018-12-04 07:00:00 2.7 9 Norte 13 Noroeste 0 -- -- 100
2018-12-04 06:00:00 3.4 5 Oeste 12 Norte 0 -- -- 100
2018-12-04 05:00:00 3 6 Noroeste 9 Noroeste 0.2 -- -- 100
2018-12-04 04:00:00 4.2 4 Norte 13 Norte 0 -- -- 100
2018-12-04 03:00:00 3.8 6 Oeste 12 Noroeste 0 -- -- 100
2018-12-04 02:00:00 4.5 6 Noroeste 13 Norte 0 -- -- 100
2018-12-04 01:00:00 4.8 8 Noroeste 14 Norte 0 -- -- 99
2018-12-04 00:00:00 5.3 11 Norte 17 Norte 0 -- -- 99
2018-12-03 23:00:00 5.8 9 Noroeste 15 Norte 0 -- -- 99
2018-12-03 22:00:00 6.6 7 Noroeste 15 Norte 0 -- -- 98
2018-12-03 21:00:00 6.6 6 Noroeste 12 Noroeste 0 -- -- 97
2018-12-03 20:00:00 7.5 8 Noroeste 15 Oeste 0 -- -- 95
2018-12-03 19:00:00 8.1 9 Noroeste 12 Noroeste 0 -- -- 93
2018-12-03 18:00:00 9 6 Oeste 11 Norte 0 -- -- 90
2018-12-03 17:00:00 10.6 5 Sudeste 10 Sudeste 0 -- -- 84
2018-12-03 16:00:00 11.4 8 Sudeste 12 Sudeste 0 -- -- 81
2018-12-03 15:00:00 11.6 4 Este 9 Sudeste 0 -- -- 80
2018-12-03 14:00:00 11.4 2 Sur 6 Sur 0 -- -- 79
2018-12-03 13:00:00 9.9 4 Sur 10 Sudeste 0 -- -- 83
2018-12-03 12:00:00 7.6 7 Sudeste 10 Sudeste 0 -- -- 89
2018-12-03 11:00:00 5.7 2 Nordeste 5 Nordeste 0 -- -- 100
2018-12-03 10:00:00 3.3 3 Oeste 5 Noroeste 0 -- -- 100
2018-12-03 09:00:00 1.9 3 Nordeste 6 Norte 0 -- -- 100
2018-12-03 08:00:00 1.8 3 Sudoeste 6 Noroeste 0 -- -- 99
2018-12-03 07:00:00 3.3 6 Noroeste 11 Noroeste 0 -- -- 100
2018-12-03 06:00:00 2.8 6 Noroeste 10 Oeste 0 -- -- 100
2018-12-03 05:00:00 3 6 Noroeste 10 Norte 0 -- -- 100
2018-12-03 04:00:00 3 8 Noroeste 13 Noroeste 0 -- -- 100
2018-12-03 03:00:00 3.5 6 Noroeste 11 Noroeste 0 -- -- 100
2018-12-03 02:00:00 4.1 5 Oeste 14 Noroeste 0 -- -- 100
2018-12-03 01:00:00 4.7 8 Noroeste 12 Noroeste 0 -- -- 98
2018-12-03 00:00:00 4.6 7 Norte 10 Oeste 0 -- -- 98
2018-12-02 23:00:00 5.1 9 Norte 12 Noroeste 0 -- -- 98
2018-12-02 22:00:00 5.9 5 Noroeste 10 Noroeste 0 -- -- 96
2018-12-02 21:00:00 6.4 8 Noroeste 13 Oeste 0 -- -- 94
2018-12-02 20:00:00 7.4 7 Oeste 11 Oeste 0 -- -- 91
2018-12-02 19:00:00 9 6 Norte 8 Norte 0 -- -- 87
2018-12-02 18:00:00 10.8 2 Sudoeste 7 Sudeste 0 -- -- 79
2018-12-02 17:00:00 12.7 4 Sudeste 6 Sudeste 0 -- -- 69
2018-12-02 16:00:00 12.9 3 Sur 8 Este 0 -- -- 69
2018-12-02 15:00:00 13.1 5 Sur 11 Sudeste 0 -- -- 67
2018-12-02 14:00:00 12.5 2 Nordeste 8 Oeste 0 -- -- 68
2018-12-02 13:00:00 10.8 4 Nordeste 12 Sudeste 0 -- -- 73
2018-12-02 12:00:00 10.7 5 Sudeste 9 Sudoeste 0 -- -- 72
2018-12-02 11:00:00 8.7 4 Sudeste 8 Nordeste 0 -- -- 81
2018-12-02 10:00:00 5.3 3 Nordeste 14 Oeste 0 -- -- 92
2018-12-02 09:00:00 3.1 8 Oeste 13 Oeste 0 -- -- 99
2018-12-02 08:00:00 2.8 7 Norte 13 Oeste 0 -- -- 99
2018-12-02 07:00:00 3.2 4 Noroeste 10 Oeste 0 -- -- 98
2018-12-02 06:00:00 4.2 0 Calma 8 Nordeste 0 -- -- 95
2018-12-02 05:00:00 4.5 3 Sur 6 Noroeste 0 -- -- 93
2018-12-02 04:00:00 4.7 5 Nordeste 9 Este 0 -- -- 93
2018-12-02 03:00:00 4.9 2 Norte 9 Nordeste 0 -- -- 92
2018-12-02 02:00:00 4.4 7 Noroeste 11 Oeste 0 -- -- 94
2018-12-02 01:00:00 4.8 4 Noroeste 9 Oeste 0 -- -- 92
2018-12-02 00:00:00 4.7 5 Noroeste 14 Norte 0 -- -- 91
2018-12-01 23:00:00 4.7 6 Norte 10 Oeste 0 -- -- 90
2018-12-01 22:00:00 4.5 7 Noroeste 12 Norte 0 -- -- 91
2018-12-01 21:00:00 5.1 7 Oeste 12 Oeste 0 -- -- 89
2018-12-01 20:00:00 5.5 2 Noroeste 13 Norte 0 -- -- 88
2018-12-01 19:00:00 6.9 7 Noroeste 11 Norte 0 -- -- 82
2018-12-01 18:00:00 8.4 5 Norte 9 Sudeste 0 -- -- 77
2018-12-01 17:00:00 10.8 6 Sudeste 13 Sudeste 0 -- -- 67
2018-12-01 16:00:00 10.7 12 Sudeste 16 Sudeste 0 -- -- 68
2018-12-01 15:00:00 11.1 12 Sudeste 17 Sudeste 0 -- -- 60
2018-12-01 14:00:00 10.2 10 Sudeste 14 Sudeste 0 -- -- 62
2018-12-01 13:00:00 10.5 5 Sudeste 11 Sudeste 0 -- -- 56
2018-12-01 12:00:00 7.8 3 Este 6 Oeste 0 -- -- 68
2018-12-01 11:00:00 4.9 2 Norte 10 Noroeste 0 -- -- 78
2018-12-01 10:00:00 3 5 Noroeste 18 Norte 0 -- -- 86
2018-12-01 09:00:00 1.7 5 Norte 15 Norte 0 -- -- 90
2018-12-01 08:00:00 1.4 10 Noroeste 12 Noroeste 0 -- -- 89
2018-12-01 07:00:00 1.1 8 Norte 16 Norte 0 -- -- 89
2018-12-01 06:00:00 1 10 Norte 18 Norte 0 -- -- 91
2018-12-01 05:00:00 1.6 15 Norte 18 Norte 0 -- -- 90
2018-12-01 04:00:00 1.7 9 Norte 12 Norte 0 -- -- 91
2018-12-01 03:00:00 2 3 Noroeste 13 Norte 0 -- -- 89
2018-12-01 02:00:00 2.3 5 Nordeste 18 Norte 0 -- -- 87
2018-12-01 01:00:00 3 4 Noroeste 14 Norte 0 -- -- 86
2018-12-01 00:00:00 4 10 Norte 18 Norte 0 -- -- 82
2018-11-30 23:00:00 4.2 9 Norte 14 Norte 0 -- -- 82
2018-11-30 22:00:00 5 14 Norte 17 Norte 0 -- -- 77
2018-11-30 21:00:00 6.6 8 Norte 14 Norte 0 -- -- 72
2018-11-30 20:00:00 8 4 Sudoeste 18 Sudoeste 0 -- -- 68
2018-11-30 19:00:00 8.7 5 Oeste 25 Oeste 0 -- -- 63
2018-11-30 18:00:00 9.8 18 Oeste 27 Oeste 0 -- -- 60
2018-11-30 17:00:00 13.6 13 Oeste 24 Norte 0 -- -- 46
2018-11-30 16:00:00 14.7 12 Noroeste 33 Norte 0 -- -- 38
2018-11-30 15:00:00 15.2 9 Noroeste 29 Oeste 0 -- -- 40
2018-11-30 14:00:00 14.5 5 Sudoeste 9 Sur 0 -- -- 58
2018-11-30 13:00:00 12.2 5 Sudeste 9 Sudeste 0 -- -- 67
2018-11-30 12:00:00 9.4 4 Este 10 Sur 0 -- -- 75
2018-11-30 11:00:00 7.7 4 Sur 10 Sudeste 0 -- -- 81
2018-11-30 10:00:00 5.9 3 Sudeste 16 Oeste 0 -- -- 87
2018-11-30 09:00:00 4.6 5 Norte 9 Noroeste 0 -- -- 92
2018-11-30 08:00:00 4.4 5 Noroeste 10 Noroeste 0 -- -- 92
2018-11-30 07:00:00 4.9 3 Noroeste 9 Oeste 0 -- -- 89
2018-11-30 06:00:00 4.9 4 Noroeste 8 Nordeste 0 -- -- 90
2018-11-30 05:00:00 4.9 6 Oeste 17 Oeste 0 -- -- 90
2018-11-30 04:00:00 5 7 Nordeste 10 Nordeste 0 -- -- 88
2018-11-30 03:00:00 5 3 Sudeste 10 Oeste 0 -- -- 86
2018-11-30 02:00:00 4.6 7 Oeste 14 Oeste 0 -- -- 90
2018-11-30 01:00:00 4.8 5 Oeste 10 Norte 0 -- -- 87
2018-11-30 00:00:00 4.8 6 Noroeste 8 Oeste 0 -- -- 89
2018-11-29 23:00:00 5.7 5 Norte 12 Oeste 0 -- -- 81
2018-11-29 22:00:00 5.9 8 Noroeste 15 Norte 0 -- -- 82
2018-11-29 21:00:00 5.7 8 Norte 15 Norte 0 -- -- 81
2018-11-29 20:00:00 7.1 6 Oeste 16 Noroeste 0 -- -- 75
2018-11-29 19:00:00 7.5 9 Noroeste 15 Norte 0 -- -- 75
2018-11-29 18:00:00 8.8 10 Noroeste 15 Norte 0 -- -- 72
2018-11-29 17:00:00 11.7 8 Sudeste 14 Sudeste 0 -- -- 58
2018-11-29 16:00:00 13.5 12 Sudeste 13 Sudeste 0 -- -- 53
2018-11-29 15:00:00 14.4 3 Sudeste 6 Sur 0 -- -- 48
2018-11-29 14:00:00 12.8 3 Este 6 Este 0 -- -- 55
2018-11-29 13:00:00 10.8 4 Sudeste 7 Sudeste 0 -- -- 60
2018-11-29 12:00:00 8.5 4 Sur 9 Este 0 -- -- 69
2018-11-29 11:00:00 4.9 2 Sudoeste 6 Sudoeste 0 -- -- 90
2018-11-29 10:00:00 2.1 0 Calma 9 Oeste 0 -- -- 95
2018-11-29 09:00:00 0.7 4 Noroeste 9 Noroeste 0 -- -- 96
2018-11-29 08:00:00 0.3 5 Noroeste 11 Noroeste 0 -- -- 97
2018-11-29 07:00:00 0.8 8 Noroeste 10 Noroeste 0 -- -- 97
2018-11-29 06:00:00 1.2 6 Noroeste 12 Norte 0 -- -- 95
2018-11-29 05:00:00 1.8 10 Norte 14 Noroeste 0 -- -- 94
2018-11-29 04:00:00 2 4 Noroeste 13 Noroeste 0 -- -- 96
2018-11-29 03:00:00 2.1 7 Oeste 10 Noroeste 0 -- -- 94
2018-11-29 02:00:00 2.4 6 Noroeste 12 Noroeste 0 -- -- 95
2018-11-29 01:00:00 3 8 Noroeste 14 Noroeste 0 -- -- 93
2018-11-29 00:00:00 3 9 Noroeste 12 Noroeste 0 -- -- 96
2018-11-28 23:00:00 3.6 5 Noroeste 10 Norte 0 -- -- 93
2018-11-28 22:00:00 4.4 6 Noroeste 10 Oeste 0 -- -- 90
2018-11-28 21:00:00 4.8 6 Noroeste 13 Noroeste 0 -- -- 90
2018-11-28 14:00:00 -- -- -- -- -- -- -- -- --
2018-11-28 13:00:00 11.4 5 Este 8 Este 0 -- -- 57
2018-11-28 12:00:00 9.3 3 Oeste 10 Sur 0 -- -- 65
2018-11-28 11:00:00 6.5 4 Sudoeste 6 Noroeste 0 -- -- 80
2018-11-28 10:00:00 3.2 3 Oeste 8 Norte 0 -- -- 89
2018-11-28 09:00:00 1 4 Nordeste 11 Noroeste 0 -- -- 98
2018-11-28 08:00:00 0.1 6 Noroeste 12 Norte 0 -- -- 96
2018-11-28 07:00:00 1.6 6 Noroeste 12 Norte 0 -- -- 91
2018-11-28 06:00:00 1.3 9 Noroeste 13 Norte 0 -- -- 94
2018-11-28 05:00:00 1.3 7 Noroeste 10 Norte 0 -- -- 95
2018-11-28 04:00:00 1.4 3 Norte 14 Noroeste 0 -- -- 94
2018-11-28 03:00:00 2.1 7 Noroeste 15 Noroeste 0 -- -- 93
2018-11-28 02:00:00 3 8 Noroeste 14 Noroeste 0 -- -- 88
2018-11-28 01:00:00 2.2 8 Noroeste 17 Norte 0 -- -- 94
2018-11-28 00:00:00 3.5 8 Norte 14 Noroeste 0 -- -- 90
2018-11-27 23:00:00 3.4 9 Noroeste 12 Norte 0 -- -- 95
2018-11-27 22:00:00 4.3 10 Norte 14 Norte 0 -- -- 89
2018-11-27 21:00:00 5.2 9 Noroeste 13 Norte 0 -- -- 86
2018-11-27 20:00:00 6.1 10 Norte 17 Norte 0 -- -- 85
2018-11-27 19:00:00 7.1 9 Noroeste 13 Noroeste 0 -- -- 83
2018-11-27 18:00:00 8.8 7 Norte 10 Norte 0 -- -- 76
2018-11-27 17:00:00 12.4 3 Sudoeste 16 Sudeste 0 -- -- 60
2018-11-27 16:00:00 12.7 12 Sudeste 16 Sudeste 0 -- -- 58
2018-11-27 15:00:00 12.4 11 Sudeste 21 Sudeste 0 -- -- 60
2018-11-27 14:00:00 12.3 14 Sudeste 18 Sudeste 0 -- -- 56
2018-11-27 13:00:00 12.6 5 Sudeste 12 Sur 0 -- -- 56
2018-11-27 12:00:00 10.2 9 Sudeste 12 Sur 0 -- -- 61
2018-11-27 11:00:00 6.8 3 Sudoeste 10 Norte 0 -- -- 76
2018-11-27 10:00:00 3.3 4 Norte 11 Nordeste 0 -- -- 84
2018-11-27 09:00:00 0.8 4 Nordeste 8 Nordeste 0 -- -- 91
2018-11-27 08:00:00 0 5 Norte 10 Norte 0 -- -- 91
2018-11-27 07:00:00 0.4 6 Nordeste 13 Sudoeste 0 -- -- 90
2018-11-27 06:00:00 1 8 Norte 17 Oeste 0 -- -- 88
2018-11-27 05:00:00 1.9 6 Noroeste 13 Nordeste 0 -- -- 84
2018-11-27 04:00:00 2.8 5 Este 16 Norte 0 -- -- 81
2018-11-27 03:00:00 3.9 7 Este 15 Sur 0 -- -- 75
2018-11-27 02:00:00 3.7 10 Sudoeste 23 Oeste 0 -- -- 74
2018-11-27 01:00:00 5.1 8 Noroeste 18 Norte 0 -- -- 65
2018-11-27 00:00:00 5.4 9 Este 14 Este 0 -- -- 67
2018-11-26 23:00:00 6.7 5 Noroeste 28 Noroeste 0 -- -- 59
2018-11-26 22:00:00 7.3 16 Noroeste 27 Noroeste 0 -- -- 52
2018-11-26 21:00:00 7.9 4 Sudoeste 19 Norte 0 -- -- 51
2018-11-26 20:00:00 7.5 9 Oeste 19 Oeste 0 -- -- 56
2018-11-26 19:00:00 7.5 10 Oeste 35 Noroeste 0 -- -- 67
2018-11-26 18:00:00 9.6 18 Noroeste 33 Noroeste 0 -- -- 54
2018-11-26 17:00:00 12 23 Oeste 32 Oeste 0 -- -- 48
2018-11-26 16:00:00 12.9 17 Noroeste 27 Oeste 0 -- -- 47
2018-11-26 15:00:00 13.8 10 Norte 23 Oeste 0 -- -- 48
2018-11-26 14:00:00 12.8 3 Este 17 Sudeste 0 -- -- 52
2018-11-26 13:00:00 11.5 6 Sur 13 Este 0 -- -- 67
2018-11-26 12:00:00 8.6 6 Sudeste 10 Sudeste 0 -- -- 81
2018-11-26 11:00:00 6.9 4 Este 10 Este 0 -- -- 86
2018-11-26 10:00:00 4.8 3 Nordeste 8 Nordeste 0 -- -- 100
2018-11-26 09:00:00 3.8 0 Calma 11 Sudeste 0 -- -- 98
2018-11-26 08:00:00 3.6 4 Sudeste 8 Sudeste 0.2 -- -- 98
2018-11-26 07:00:00 3.5 4 Nordeste 12 Oeste 0 -- -- 96
2018-11-26 06:00:00 3.4 8 Oeste 10 Oeste 0 -- -- 96
2018-11-26 05:00:00 3.4 3 Noroeste 6 Norte 0 -- -- 96
2018-11-26 04:00:00 3.4 3 Noroeste 9 Norte 0 -- -- 95
2018-11-26 03:00:00 3.3 8 Norte 10 Norte 0 -- -- 95
2018-11-26 02:00:00 3.3 8 Oeste 18 Norte 0 -- -- 93
2018-11-26 01:00:00 3.1 4 Oeste 15 Norte 0 -- -- 94
2018-11-26 00:00:00 2.8 7 Norte 15 Norte 0 -- -- 95
2018-11-25 23:00:00 3.1 8 Noroeste 14 Norte 0 -- -- 94
2018-11-25 22:00:00 3.7 4 Norte 17 Noroeste 0 -- -- 93
2018-11-25 21:00:00 3.9 7 Norte 15 Norte 0 -- -- 94
2018-11-25 20:00:00 4.7 10 Norte 13 Norte 0 -- -- 93
2018-11-25 19:00:00 5.5 11 Norte 14 Norte 0 -- -- 92
2018-11-25 18:00:00 8.5 4 Norte 12 Sudoeste 0 -- -- 71
2018-11-25 17:00:00 11.7 9 Oeste 17 Oeste 0 -- -- 60
2018-11-25 16:00:00 11.4 6 Sudeste 13 Sudeste 0 -- -- 67
2018-11-25 15:00:00 11.2 7 Sudeste 12 Sudeste 0 -- -- 70
2018-11-25 14:00:00 11.5 5 Sudeste 12 Este 0 -- -- 73
2018-11-25 13:00:00 10.7 8 Sudeste 13 Sur 0 -- -- 77
2018-11-25 12:00:00 8 3 Nordeste 6 Nordeste 0 -- -- 83
2018-11-25 11:00:00 6 3 Nordeste 7 Este 0.2 -- -- 100
2018-11-25 10:00:00 4.3 4 Oeste 7 Oeste 0.4 -- -- 100
2018-11-25 09:00:00 3.9 2 Oeste 6 Noroeste 0 -- -- 100
2018-11-25 08:00:00 3.4 6 Noroeste 13 Oeste 0.8 -- -- 100
2018-11-25 07:00:00 3.1 11 Oeste 14 Oeste 0.2 -- -- 100
2018-11-25 06:00:00 2.8 8 Oeste 10 Oeste 0 -- -- 99
2018-11-25 05:00:00 2.6 3 Noroeste 12 Sudeste 0 -- -- 99
2018-11-25 04:00:00 2.6 7 Oeste 14 Oeste 0 -- -- 98
2018-11-25 03:00:00 2 4 Noroeste 9 Nordeste 0 -- -- 99
2018-11-25 02:00:00 1.7 4 Noroeste 12 Oeste 0 -- -- 99
2018-11-25 01:00:00 2 6 Noroeste 12 Noroeste 0 -- -- 98
2018-11-25 00:00:00 2.3 10 Noroeste 14 Norte 0 -- -- 98
2018-11-24 23:00:00 2.6 9 Oeste 18 Norte 0 -- -- 98
2018-11-24 22:00:00 3.2 7 Noroeste 13 Norte 0 -- -- 97
2018-11-24 21:00:00 3.8 5 Noroeste 8 Noroeste 0 -- -- 95
2018-11-24 20:00:00 4.4 5 Noroeste 14 Noroeste 0 -- -- 95
2018-11-24 19:00:00 5.3 9 Oeste 14 Noroeste 0 -- -- 93
2018-11-24 18:00:00 7 8 Noroeste 10 Oeste 0 -- -- 88
2018-11-24 17:00:00 9.6 6 Este 9 Sudeste 0 -- -- 75
2018-11-24 16:00:00 10.4 3 Oeste 5 Oeste 0 -- -- 74
2018-11-24 15:00:00 9.1 3 Nordeste 7 Norte 0 -- -- 76
2018-11-24 14:00:00 10.1 3 Sur 9 Sur 0 -- -- 71
2018-11-24 13:00:00 9.1 3 Sudeste 12 Sudeste 0 -- -- 75
2018-11-24 12:00:00 7.4 6 Sudeste 9 Sur 0 -- -- 80
2018-11-24 11:00:00 5.2 3 Sudoeste 8 Este 0 -- -- 100
2018-11-24 10:00:00 1.7 0 Calma 8 Oeste 0 -- -- 100
2018-11-24 09:00:00 -0.1 6 Noroeste 10 Oeste 0 -- -- 100
2018-11-24 08:00:00 -0.6 7 Noroeste 12 Norte 0 -- -- 100
2018-11-24 07:00:00 0.1 2 Sudoeste 6 Noroeste 0.2 -- -- 100
2018-11-24 06:00:00 0.3 4 Noroeste 8 Noroeste 0 -- -- 100
2018-11-24 05:00:00 0.3 5 Noroeste 8 Noroeste 0 -- -- 100
2018-11-24 04:00:00 0.8 3 Nordeste 9 Noroeste 0 -- -- 100
2018-11-24 03:00:00 1.2 5 Noroeste 11 Norte 0 -- -- 100
2018-11-24 02:00:00 1.7 9 Norte 12 Oeste 0 -- -- 100
2018-11-24 01:00:00 2 7 Noroeste 12 Noroeste 0 -- -- 100
2018-11-24 00:00:00 2.4 7 Oeste 13 Oeste 0 -- -- 100
2018-11-23 23:00:00 3.4 8 Oeste 14 Oeste 0 -- -- 99
2018-11-23 22:00:00 4.4 6 Noroeste 10 Oeste 0 -- -- 100
2018-11-23 21:00:00 4.5 7 Oeste 13 Oeste 0 -- -- 99
2018-11-23 20:00:00 5.6 8 Oeste 12 Oeste 0 -- -- 99
2018-11-23 19:00:00 6.9 0 Calma 13 Sudeste 0.2 -- -- 99
2018-11-23 18:00:00 7.4 6 Sudoeste 12 Sudeste 0.6 -- -- 97
2018-11-23 17:00:00 8.1 0 Calma 6 Oeste 0 -- -- 96
2018-11-23 16:00:00 8.2 5 Oeste 6 Oeste 0.2 -- -- 94
2018-11-23 15:00:00 8.1 2 Oeste 5 Oeste 0 -- -- 93
2018-11-23 14:00:00 7.8 2 Nordeste 5 Este 0.2 -- -- 95
2018-11-23 13:00:00 7.5 3 Nordeste 6 Oeste 0.6 -- -- 99
2018-11-23 12:00:00 7.1 3 Noroeste 9 Noroeste 0.2 -- -- 98
2018-11-23 11:00:00 6.5 6 Oeste 9 Oeste 0.4 -- -- 99
2018-11-23 10:00:00 5.9 4 Oeste 8 Noroeste 0.6 -- -- 99
2018-11-23 09:00:00 5.5 3 Noroeste 14 Oeste 0.4 -- -- 99
2018-11-23 08:00:00 5.4 4 Noroeste 7 Oeste 0 -- -- 96
2018-11-23 07:00:00 5.2 2 Noroeste 5 Noroeste 0 -- -- 97
2018-11-23 06:00:00 5.2 0 Calma 10 Noroeste 0 -- -- 96
2018-11-23 05:00:00 5.2 6 Oeste 13 Norte 0 -- -- 96
2018-11-23 04:00:00 5 7 Noroeste 9 Noroeste 0 -- -- 97
2018-11-23 03:00:00 5.5 5 Noroeste 7 Noroeste 0 -- -- 95
2018-11-23 02:00:00 5.7 2 Oeste 8 Norte 0 -- -- 95
2018-11-23 01:00:00 5.8 5 Noroeste 9 Noroeste 0 -- -- 94
2018-11-23 00:00:00 6.1 6 Noroeste 13 Norte 0 -- -- 94
2018-11-22 23:00:00 6.2 5 Norte 8 Norte 0 -- -- 95
2018-11-22 22:00:00 6.5 4 Noroeste 12 Noroeste 0 -- -- 93
2018-11-22 21:00:00 6.8 8 Norte 13 Noroeste 0 -- -- 94
2018-11-22 20:00:00 6.7 6 Noroeste 11 Oeste 0 -- -- 93
2018-11-22 19:00:00 7.6 3 Noroeste 12 Noroeste 0 -- -- 90
2018-11-22 18:00:00 8.9 7 Norte 9 Norte 0 -- -- 86
2018-11-22 17:00:00 10.5 7 Sudeste 9 Sudeste 0 -- -- 81
2018-11-22 16:00:00 12.7 0 Calma 5 Este 0 -- -- 70
2018-11-22 15:00:00 11.9 3 Sudeste 6 Sudeste 0 -- -- 76
2018-11-22 14:00:00 12.1 2 Este 8 Sudoeste 0 -- -- 76
2018-11-22 13:00:00 10 4 Sudoeste 8 Oeste 0 -- -- 91
2018-11-22 12:00:00 6.6 2 Noroeste 5 Oeste 0 -- -- 100
2018-11-22 11:00:00 5.4 0 Calma 4 Norte 0 -- -- 100
2018-11-22 10:00:00 4.9 2 Sudeste 7 Noroeste 0 -- -- 100
2018-11-22 09:00:00 4.2 4 Norte 13 Norte 0 -- -- 100
2018-11-22 08:00:00 4.6 7 Noroeste 10 Noroeste 0 -- -- 100
2018-11-22 07:00:00 4.4 6 Noroeste 8 Noroeste 0 -- -- 100
2018-11-22 06:00:00 4.9 3 Norte 9 Noroeste 0 -- -- 100
2018-11-22 05:00:00 5.1 6 Oeste 8 Noroeste 0 -- -- 100
2018-11-22 04:00:00 5.3 3 Noroeste 8 Oeste 0 -- -- 100
2018-11-22 03:00:00 5.4 5 Nordeste 8 Norte 0 -- -- 100
2018-11-22 02:00:00 6 5 Norte 11 Norte 0 -- -- 100
2018-11-22 01:00:00 5.9 6 Noroeste 12 Norte 0.4 -- -- 100
2018-11-22 00:00:00 5.8 3 Oeste 10 Nordeste 0 -- -- 100
2018-11-21 23:00:00 5.8 8 Norte 13 Norte 0.2 -- -- 100
2018-11-21 22:00:00 6 4 Oeste 7 Oeste 0 -- -- 99
2018-11-21 21:00:00 6.1 4 Noroeste 12 Oeste 0 -- -- 99
2018-11-21 20:00:00 6.7 6 Oeste 11 Oeste 0 -- -- 99
2018-11-21 19:00:00 7.4 6 Oeste 8 Oeste 0.2 -- -- 98
2018-11-21 18:00:00 7.8 5 Norte 12 Oeste 2 -- -- 97
2018-11-21 17:00:00 8.5 3 Nordeste 10 Norte 0 -- -- 93
2018-11-21 16:00:00 9.1 4 Este 10 Sur 0.4 -- -- 91
2018-11-21 15:00:00 9.7 6 Sur 11 Sudeste 0.8 -- -- 90
2018-11-21 14:00:00 11.5 4 Sudoeste 10 Sudoeste 0 -- -- 76
2018-11-21 13:00:00 10.1 3 Oeste 9 Oeste 0 -- -- 82
2018-11-21 12:00:00 8.9 4 Oeste 11 Oeste 0 -- -- 91
2018-11-21 11:00:00 7 5 Oeste 9 Oeste 0 -- -- 98
2018-11-21 10:00:00 6 0 Calma 10 Noroeste 0 -- -- 100
2018-11-21 09:00:00 5.3 6 Sudoeste 9 Sudoeste 0 -- -- 100
2018-11-21 08:00:00 4.7 4 Oeste 7 Oeste 0 -- -- 99
2018-11-21 07:00:00 4.6 0 Calma 6 Sudoeste 0 -- -- 99
2018-11-21 06:00:00 4.7 4 Noroeste 8 Noroeste 0 -- -- 99
2018-11-21 05:00:00 4.6 2 Nordeste 15 Oeste 0 -- -- 98
2018-11-21 04:00:00 4.7 8 Oeste 10 Sudoeste 0 -- -- 98
2018-11-21 03:00:00 4.8 2 Norte 6 Oeste 0 -- -- 98
2018-11-21 02:00:00 4.6 5 Oeste 7 Oeste 0 -- -- 97
2018-11-21 01:00:00 4.6 3 Noroeste 14 Oeste 0 -- -- 97
2018-11-21 00:00:00 4.6 6 Noroeste 10 Oeste 0 -- -- 98
2018-11-20 23:00:00 4.3 5 Oeste 12 Oeste 0 -- -- 98
2018-11-20 22:00:00 4 9 Oeste 10 Oeste 0 -- -- 99
2018-11-20 21:00:00 3.9 3 Oeste 8 Sudoeste 0.2 -- -- 98
2018-11-20 20:00:00 3.7 3 Noroeste 14 Oeste 0 -- -- 99
2018-11-20 19:00:00 3.5 12 Oeste 16 Oeste 0 -- -- 97
2018-11-20 18:00:00 3.8 10 Noroeste 18 Oeste 1.4 -- -- 97
2018-11-20 17:00:00 4.6 6 Oeste 18 Oeste 1.4 -- -- 97
2018-11-20 16:00:00 4.7 13 Oeste 19 Oeste 0.2 -- -- 95
2018-11-20 15:00:00 5.2 8 Noroeste 16 Oeste 0.2 -- -- 95
2018-11-20 14:00:00 5.2 11 Oeste 17 Oeste 0.6 -- -- 94
2018-11-20 13:00:00 5.3 8 Oeste 18 Oeste 0.4 -- -- 94
2018-11-20 12:00:00 5.5 5 Oeste 8 Oeste 0.2 -- -- 91
2018-11-20 11:00:00 5.2 0 Calma 9 Oeste 0 -- -- 92
2018-11-20 10:00:00 4.5 5 Oeste 13 Oeste 0 -- -- 87
2018-11-20 09:00:00 3.4 10 Oeste 12 Oeste 0 -- -- 90
2018-11-20 08:00:00 3.1 8 Oeste 11 Oeste 0 -- -- 90
2018-11-20 07:00:00 3.4 4 Oeste 11 Oeste 0 -- -- 88
2018-11-20 06:00:00 3.2 6 Oeste 15 Oeste 0 -- -- 91
2018-11-20 05:00:00 3 5 Noroeste 14 Oeste 0 -- -- 94
2018-11-20 04:00:00 2.9 10 Noroeste 13 Oeste 0 -- -- 89
2018-11-20 03:00:00 3.1 7 Noroeste 17 Oeste 0 -- -- 91
2018-11-20 02:00:00 3.3 9 Oeste 14 Oeste 0 -- -- 90
2018-11-20 01:00:00 4.1 11 Noroeste 17 Oeste 0 -- -- 89
2018-11-20 00:00:00 4.5 13 Noroeste 18 Oeste 0 -- -- 90
2018-11-19 23:00:00 6 11 Oeste 18 Oeste 0 -- -- 88
2018-11-19 22:00:00 7 12 Oeste 16 Oeste 0 -- -- 91
2018-11-19 21:00:00 7.5 9 Oeste 12 Oeste 0 -- -- 96
2018-11-19 20:00:00 8.2 5 Oeste 8 Oeste 0 -- -- 93
2018-11-19 19:00:00 8.9 7 Sudeste 27 Sudeste 0.2 -- -- 90
2018-11-19 18:00:00 9.9 15 Sudeste 29 Sudeste 0 -- -- 86
2018-11-19 17:00:00 12.1 15 Sudeste 22 Sudeste 0 -- -- 76
2018-11-19 16:00:00 13.5 10 Sudeste 20 Sudeste 0 -- -- 70
2018-11-19 15:00:00 13.5 16 Sudeste 22 Sudeste 0 -- -- 69
2018-11-19 14:00:00 13.4 14 Sudeste 18 Sudeste 0 -- -- 70
2018-11-19 13:00:00 13.2 10 Sudeste 15 Sudeste 0 -- -- 70
2018-11-19 12:00:00 11.2 5 Sudeste 10 Este 0 -- -- 77
2018-11-19 11:00:00 9.3 4 Norte 7 Nordeste 0 -- -- 82
2018-11-19 10:00:00 6.5 5 Norte 14 Noroeste 0 -- -- 95
2018-11-19 09:00:00 5.3 10 Norte 16 Norte 0 -- -- 100
2018-11-19 08:00:00 5.3 13 Norte 17 Norte 0 -- -- 98
2018-11-19 07:00:00 5.8 9 Norte 14 Norte 0 -- -- 99
2018-11-19 06:00:00 5.8 10 Norte 13 Norte 0 -- -- 99
2018-11-19 05:00:00 6 13 Norte 17 Norte 0 -- -- 99
2018-11-19 04:00:00 6.6 8 Norte 12 Noroeste 0 -- -- 99
2018-11-19 03:00:00 6.8 3 Norte 9 Norte 0 -- -- 99
2018-11-19 02:00:00 7 8 Norte 10 Norte 0 -- -- 99
2018-11-19 01:00:00 7 9 Norte 15 Norte 0 -- -- 99
2018-11-19 00:00:00 7.1 6 Norte 10 Norte 0 -- -- 100
2018-11-18 23:00:00 7.3 6 Noroeste 13 Norte 0 -- -- 100
2018-11-18 22:00:00 7.5 0 Calma 7 Oeste 0 -- -- 99
2018-11-18 21:00:00 7.6 5 Noroeste 8 Noroeste 0 -- -- 99
2018-11-18 20:00:00 7.9 4 Noroeste 7 Norte 0 -- -- 99
2018-11-18 19:00:00 8.1 0 Calma 8 Norte 0 -- -- 98
2018-11-18 18:00:00 8.2 0 Calma 7 Norte 0 -- -- 97
2018-11-18 17:00:00 8.6 4 Norte 6 Noroeste 0.2 -- -- 97
2018-11-18 16:00:00 8.9 3 Noroeste 4 Oeste 0.2 -- -- 95
2018-11-18 15:00:00 8.9 0 Calma 4 Nordeste 0 -- -- 95
2018-11-18 14:00:00 8.8 2 Sudoeste 5 Sudoeste 0.2 -- -- 94
2018-11-18 13:00:00 8.5 0 Calma 9 Noroeste 0.4 -- -- 92
2018-11-18 12:00:00 8.1 6 Oeste 13 Oeste 0.6 -- -- 96
2018-11-18 11:00:00 8 5 Noroeste 10 Oeste 0 -- -- 95
2018-11-18 10:00:00 7.8 6 Noroeste 13 Oeste 0 -- -- 98
2018-11-18 09:00:00 7.5 10 Oeste 13 Oeste 0.6 -- -- 99
2018-11-18 08:00:00 7.7 9 Oeste 10 Oeste 0.6 -- -- 100
2018-11-18 07:00:00 7.9 5 Oeste 10 Oeste 1 -- -- 99
2018-11-18 06:00:00 8.2 6 Oeste 8 Oeste 0.8 -- -- 99
2018-11-18 05:00:00 8.4 0 Calma 8 Oeste 1.8 -- -- 99
2018-11-18 04:00:00 8.6 5 Oeste 7 Oeste 1 -- -- 99
2018-11-18 03:00:00 8.6 3 Sur 8 Sur 1.4 -- -- 99
2018-11-18 02:00:00 8.9 4 Sudeste 9 Sudeste 0.4 -- -- 98
2018-11-18 01:00:00 9.3 3 Sudeste 8 Sur 2.2 -- -- 99
2018-11-18 00:00:00 9.5 3 Sudoeste 7 Oeste 4.2 -- -- 98
2018-11-17 23:00:00 9.8 3 Este 11 Este 2 -- -- 95
2018-11-17 22:00:00 10.1 7 Este 11 Sudeste 0 -- -- 93
2018-11-17 21:00:00 10.5 7 Sudeste 16 Sudeste 0 -- -- 90
2018-11-17 20:00:00 10.6 10 Sudeste 20 Sudeste 0 -- -- 90
2018-11-17 19:00:00 10.7 16 Sudeste 21 Sudeste 0 -- -- 90
2018-11-17 18:00:00 10.9 11 Sudeste 25 Sudeste 0 -- -- 89
2018-11-17 17:00:00 11.6 19 Sudeste 26 Sudeste 0 -- -- 87
2018-11-17 16:00:00 12.4 21 Sudeste 29 Sudeste 0 -- -- 86
2018-11-17 15:00:00 14 10 Sudeste 19 Sudeste 0 -- -- 82
2018-11-17 14:00:00 13.6 9 Sudeste 12 Sudeste 0 -- -- 80
2018-11-17 13:00:00 13 5 Sudeste 11 Sudeste 0 -- -- 78
2018-11-17 12:00:00 12.4 2 Sudoeste 6 Sudoeste 0 -- -- 80
2018-11-17 11:00:00 10.7 2 Oeste 5 Oeste 0 -- -- 85
2018-11-17 10:00:00 9.1 3 Oeste 13 Norte 0 -- -- 91
2018-11-17 09:00:00 8.5 5 Oeste 9 Noroeste 0 -- -- 94
2018-11-17 08:00:00 8.1 6 Norte 12 Oeste 0 -- -- 95
2018-11-17 07:00:00 8.5 5 Noroeste 9 Oeste 0 -- -- 94
2018-11-17 06:00:00 9.1 6 Noroeste 12 Oeste 0 -- -- 91
2018-11-17 05:00:00 9.4 8 Oeste 10 Oeste 0 -- -- 90
2018-11-17 04:00:00 10.2 0 Calma 9 Oeste 0 -- -- 92
2018-11-17 03:00:00 10.3 3 Oeste 6 Oeste 0 -- -- 92
2018-11-17 02:00:00 10.5 0 Calma 8 Sudoeste 0 -- -- 89
2018-11-17 01:00:00 10.5 0 Calma 7 Noroeste 0 -- -- 89
2018-11-17 00:00:00 10.5 6 Oeste 9 Oeste 0 -- -- 90
2018-11-16 23:00:00 10.5 5 Oeste 9 Oeste 0 -- -- 90
2018-11-16 22:00:00 10.5 6 Oeste 12 Oeste 0 -- -- 90
2018-11-16 21:00:00 10.6 7 Oeste 12 Oeste 0 -- -- 90
2018-11-16 20:00:00 11.6 10 Oeste 11 Oeste 0 -- -- 87
2018-11-16 19:00:00 13.3 0 Calma 10 Este 0 -- -- 83
2018-11-16 18:00:00 14.6 5 Sudeste 14 Sudeste 0 -- -- 78
2018-11-16 17:00:00 16.7 9 Sudeste 12 Sudeste 0 -- -- 66
2018-11-16 16:00:00 17.6 9 Sudeste 13 Sudeste 0 -- -- 62
2018-11-16 15:00:00 17.7 10 Sudeste 13 Sudeste 0 -- -- 61
2018-11-16 14:00:00 17.8 8 Sudeste 13 Sudeste 0 -- -- 64
2018-11-16 13:00:00 16.9 8 Sudeste 12 Sudeste 0 -- -- 64
2018-11-16 12:00:00 15.4 5 Sudeste 12 Sudeste 0 -- -- 70
2018-11-16 11:00:00 12.9 2 Oeste 6 Oeste 0 -- -- 83
2018-11-16 10:00:00 9.9 3 Norte 8 Norte 0 -- -- 92
2018-11-16 09:00:00 7.7 4 Noroeste 7 Norte 0 -- -- 99
2018-11-16 08:00:00 7.2 6 Norte 8 Norte 0 -- -- 98
2018-11-16 07:00:00 7.9 4 Norte 6 Norte 0 -- -- 97
2018-11-16 06:00:00 8.7 2 Nordeste 9 Norte 0 -- -- 95
2018-11-16 05:00:00 9 4 Noroeste 14 Norte 0 -- -- 97
2018-11-16 04:00:00 8.9 8 Noroeste 10 Oeste 0 -- -- 96
2018-11-16 03:00:00 9.3 4 Noroeste 6 Noroeste 0 -- -- 95
2018-11-16 02:00:00 9.4 3 Oeste 4 Oeste 0 -- -- 94
2018-11-16 01:00:00 9.3 5 Oeste 10 Oeste 0 -- -- 94
2018-11-16 00:00:00 9 7 Oeste 14 Norte 0 -- -- 97
2018-11-15 23:00:00 10.2 4 Noroeste 8 Oeste 0 -- -- 95
2018-11-15 22:00:00 11 4 Sudoeste 8 Oeste 0 -- -- 90
2018-11-15 21:00:00 11.5 3 Noroeste 14 Noroeste 0 -- -- 90
2018-11-15 20:00:00 11.9 10 Noroeste 12 Noroeste 0 -- -- 90
2018-11-15 19:00:00 12.4 3 Norte 5 Oeste 0 -- -- 89
2018-11-15 18:00:00 13.6 0 Calma 4 Sudoeste 0 -- -- 83
2018-11-15 17:00:00 14.2 0 Calma 9 Sur 0 -- -- 79
2018-11-15 16:00:00 14.5 8 Sudeste 11 Sudeste 0 -- -- 78
2018-11-15 15:00:00 15.4 7 Sudeste 15 Sudeste 0 -- -- 79
2018-11-15 14:00:00 14.4 7 Sudeste 10 Sudeste 0 -- -- 81
2018-11-15 13:00:00 13 2 Oeste 5 Sur 0 -- -- 86
2018-11-15 12:00:00 11.7 0 Calma 4 Sudeste 0 -- -- 89
2018-11-15 11:00:00 11.1 2 Nordeste 9 Oeste 0 -- -- 92
2018-11-15 10:00:00 9.9 2 Noroeste 10 Noroeste 0 -- -- 95
2018-11-15 09:00:00 9 4 Noroeste 10 Norte 0 -- -- 95
2018-11-15 08:00:00 9.3 4 Norte 14 Noroeste 0 -- -- 94
2018-11-15 07:00:00 9 5 Noroeste 10 Noroeste 0 -- -- 94
2018-11-15 06:00:00 9 8 Norte 12 Norte 0 -- -- 93
2018-11-15 05:00:00 9.3 5 Oeste 15 Noroeste 0 -- -- 95
2018-11-15 04:00:00 8.8 10 Norte 13 Norte 0 -- -- 96
2018-11-15 03:00:00 8.7 5 Noroeste 13 Norte 0 -- -- 98
2018-11-15 02:00:00 8.9 7 Norte 14 Norte 0 -- -- 96
2018-11-15 01:00:00 9.4 4 Norte 15 Norte 0 -- -- 95
2018-11-15 00:00:00 10 3 Norte 11 Oeste 0 -- -- 95
2018-11-14 23:00:00 10.1 6 Noroeste 13 Noroeste 0 -- -- 97
2018-11-14 22:00:00 10.4 8 Norte 13 Noroeste 0 -- -- 96
2018-11-14 21:00:00 11.2 5 Noroeste 9 Norte 0 -- -- 93
2018-11-14 20:00:00 12 5 Noroeste 9 Norte 0 -- -- 91
2018-11-14 19:00:00 13.4 0 Calma 5 Este 0 -- -- 84
2018-11-14 18:00:00 14.6 6 Sudeste 15 Sudeste 0 -- -- 80
2018-11-14 17:00:00 16.4 10 Sudeste 19 Sudeste 0 -- -- 70
2018-11-14 16:00:00 18.1 8 Sur 12 Sur 0 -- -- 62
2018-11-14 15:00:00 18.6 8 Sudeste 13 Sudeste 0 -- -- 61
2018-11-14 14:00:00 18.4 8 Sudeste 10 Sudeste 0 -- -- 62
2018-11-14 13:00:00 18 4 Sudeste 7 Este 0 -- -- 66
2018-11-14 12:00:00 16.3 3 Sudoeste 7 Sur 0 -- -- 69
2018-11-14 11:00:00 13.4 4 Sur 6 Oeste 0 -- -- 80
2018-11-14 10:00:00 10.1 4 Noroeste 7 Noroeste 0 -- -- 90
2018-11-14 09:00:00 8.9 4 Oeste 10 Noroeste 0 -- -- 91
2018-11-14 08:00:00 8.3 8 Norte 12 Norte 0 -- -- 93
2018-11-14 07:00:00 8.4 7 Noroeste 10 Noroeste 0 -- -- 93
2018-11-14 06:00:00 7.8 8 Noroeste 14 Norte 0 -- -- 95
2018-11-14 05:00:00 7.7 4 Noroeste 11 Noroeste 0 -- -- 96
2018-11-14 04:00:00 7.9 3 Noroeste 13 Noroeste 0 -- -- 95
2018-11-14 03:00:00 8.1 9 Noroeste 13 Noroeste 0 -- -- 94
2018-11-14 02:00:00 8.5 8 Noroeste 17 Norte 0 -- -- 94
2018-11-14 01:00:00 9.5 12 Norte 16 Norte 0 -- -- 90
2018-11-14 00:00:00 9.5 11 Norte 17 Norte 0 -- -- 91
2018-11-13 23:00:00 10.3 4 Noroeste 17 Norte 0 -- -- 90
2018-11-13 22:00:00 10.5 6 Noroeste 10 Norte 0 -- -- 90
2018-11-13 21:00:00 10.3 8 Noroeste 13 Noroeste 0 -- -- 91
2018-11-13 20:00:00 10.8 7 Noroeste 11 Oeste 0 -- -- 89
2018-11-13 19:00:00 12.2 6 Noroeste 12 Oeste 0 -- -- 84
2018-11-13 18:00:00 14.2 5 Noroeste 12 Norte 0 -- -- 77
2018-11-13 17:00:00 17.5 5 Sudeste 8 Sudeste 0 -- -- 62
2018-11-13 16:00:00 18.7 7 Sudeste 10 Sudeste 0 -- -- 57
2018-11-13 15:00:00 18.5 9 Sudeste 17 Sudeste 0 -- -- 57
2018-11-13 14:00:00 18.1 12 Sudeste 16 Sudeste 0 -- -- 62
2018-11-13 13:00:00 16.6 8 Sudeste 11 Sudeste 0 -- -- 66
2018-11-13 12:00:00 15.3 4 Sudeste 8 Sur 0 -- -- 70
2018-11-13 11:00:00 13.7 3 Sur 5 Sudoeste 0 -- -- 79
2018-11-13 10:00:00 10.4 0 Calma 5 Oeste 0 -- -- 91
2018-11-13 09:00:00 7.6 3 Noroeste 9 Noroeste 0 -- -- 99
2018-11-13 08:00:00 7.6 3 Oeste 12 Noroeste 0 -- -- 98
2018-11-13 07:00:00 7.9 3 Oeste 10 Noroeste 0 -- -- 98
2018-11-13 06:00:00 8 3 Noroeste 8 Noroeste 0 -- -- 98
2018-11-13 05:00:00 8.3 6 Norte 12 Noroeste 0 -- -- 97
2018-11-13 04:00:00 8.7 6 Norte 13 Noroeste 0 -- -- 96
2018-11-13 03:00:00 9.2 6 Noroeste 17 Noroeste 0 -- -- 96
2018-11-13 02:00:00 9.8 8 Noroeste 14 Noroeste 0 -- -- 95
2018-11-13 01:00:00 10 8 Noroeste 14 Norte 0 -- -- 95
2018-11-13 00:00:00 10.7 8 Noroeste 15 Norte 0 -- -- 94
2018-11-12 23:00:00 10.9 7 Noroeste 13 Noroeste 0 -- -- 94
2018-11-12 22:00:00 11.5 8 Oeste 13 Noroeste 0 -- -- 92
2018-11-12 21:00:00 12 6 Noroeste 13 Noroeste 0 -- -- 91
2018-11-12 20:00:00 12.6 9 Noroeste 15 Norte 0 -- -- 90
2018-11-12 19:00:00 13.8 5 Noroeste 13 Noroeste 0 -- -- 86
2018-11-12 18:00:00 14.6 6 Noroeste 14 Norte 0 -- -- 84
2018-11-12 17:00:00 16.7 7 Norte 9 Norte 0 -- -- 73
2018-11-12 16:00:00 18.6 2 Sudeste 6 Nordeste 0 -- -- 63
2018-11-12 15:00:00 19.7 3 Nordeste 9 Sur 0 -- -- 62
2018-11-12 14:00:00 18.2 3 Oeste 10 Nordeste 0 -- -- 66
2018-11-12 13:00:00 17.2 5 Norte 11 Norte 0 -- -- 71
2018-11-12 12:00:00 15.8 4 Norte 9 Norte 0 -- -- 76
2018-11-12 11:00:00 13.3 4 Norte 16 Norte 0 -- -- 89
2018-11-12 10:00:00 12.4 4 Noroeste 12 Norte 0 -- -- 92
2018-11-12 09:00:00 11.1 8 Norte 14 Norte 0 -- -- 98
2018-11-12 08:00:00 10.5 9 Norte 14 Norte 0 -- -- 98
2018-11-12 07:00:00 10.5 9 Norte 12 Norte 0 -- -- 97
2018-11-12 06:00:00 10.7 4 Norte 9 Norte 0 -- -- 96
2018-11-12 05:00:00 10.8 6 Noroeste 11 Oeste 0 -- -- 97
2018-11-12 04:00:00 10.7 6 Noroeste 10 Norte 0 -- -- 96
2018-11-12 03:00:00 10.7 6 Noroeste 9 Nordeste 0 -- -- 96
2018-11-12 02:00:00 10.7 4 Noroeste 10 Norte 0 -- -- 96
2018-11-12 01:00:00 10.5 5 Noroeste 8 Norte 0 -- -- 96
2018-11-12 00:00:00 10.7 5 Norte 9 Noroeste 0 -- -- 93
2018-11-11 23:00:00 11.1 5 Noroeste 10 Noroeste 0 -- -- 92
2018-11-11 22:00:00 11 9 Noroeste 15 Norte 0 -- -- 93
2018-11-11 21:00:00 11.4 5 Norte 22 Norte 0 -- -- 92
2018-11-11 20:00:00 11.5 12 Noroeste 18 Norte 0 -- -- 91
2018-11-11 19:00:00 12.1 12 Noroeste 17 Norte 0 -- -- 89
2018-11-11 18:00:00 12.8 10 Noroeste 14 Noroeste 0 -- -- 86
2018-11-11 17:00:00 15.8 6 Oeste 15 Norte 0 -- -- 76
2018-11-11 16:00:00 15.5 12 Noroeste 15 Noroeste 0 -- -- 76
2018-11-11 15:00:00 15 7 Oeste 12 Oeste 0 -- -- 77
2018-11-11 14:00:00 12.6 7 Oeste 9 Oeste 0 -- -- 92
2018-11-11 13:00:00 11.1 2 Norte 9 Oeste 0 -- -- 95
2018-11-11 12:00:00 10.2 3 Noroeste 7 Oeste 0 -- -- 99
2018-11-11 11:00:00 9.7 2 Oeste 6 Oeste 0 -- -- 100
2018-11-11 10:00:00 8.8 2 Oeste 8 Noroeste 0 -- -- 100
2018-11-11 09:00:00 8 5 Norte 9 Noroeste 0 -- -- 100
2018-11-11 08:00:00 7.6 0 Calma 8 Oeste 0 -- -- 100
2018-11-11 07:00:00 7.8 4 Norte 10 Norte 0 -- -- 100
2018-11-11 06:00:00 7.6 3 Oeste 13 Norte 0 -- -- 100
2018-11-11 05:00:00 7.4 6 Noroeste 12 Noroeste 0 -- -- 100
2018-11-11 04:00:00 7.2 6 Norte 11 Norte 0 -- -- 100
2018-11-11 03:00:00 7.3 4 Sudoeste 6 Sudoeste 0 -- -- 100
2018-11-11 02:00:00 8 3 Norte 9 Norte 0 -- -- 100
2018-11-11 01:00:00 8.6 3 Este 12 Norte 0 -- -- 100
2018-11-11 00:00:00 9.1 2 Norte 8 Sudoeste 0 -- -- 100
2018-11-10 23:00:00 9.2 6 Norte 9 Norte 0 -- -- 100
2018-11-10 22:00:00 9.5 2 Oeste 12 Oeste 0 -- -- 100
2018-11-10 21:00:00 9.6 8 Oeste 14 Nordeste 0.6 -- -- 100
2018-11-10 20:00:00 9.6 4 Noroeste 7 Oeste 0.4 -- -- 100
2018-11-10 19:00:00 9.7 5 Noroeste 10 Oeste 0.8 -- -- 100
2018-11-10 18:00:00 9.8 7 Oeste 10 Oeste 0.2 -- -- 99
2018-11-10 17:00:00 10 7 Norte 10 Noroeste 0.2 -- -- 97
2018-11-10 16:00:00 10.3 5 Noroeste 9 Noroeste 0 -- -- 95
2018-11-10 15:00:00 10.5 4 Noroeste 10 Sudeste 0.2 -- -- 94
2018-11-10 14:00:00 10 4 Oeste 8 Oeste 0 -- -- 94
2018-11-10 13:00:00 9.7 4 Noroeste 6 Noroeste 0 -- -- 93
2018-11-10 12:00:00 9.1 3 Noroeste 8 Norte 0.2 -- -- 94
2018-11-10 11:00:00 9.2 3 Sudeste 7 Sudoeste 0.2 -- -- 94
2018-11-10 10:00:00 8.9 2 Sudoeste 5 Oeste 0 -- -- 94
2018-11-10 09:00:00 7.6 0 Calma 8 Norte 0 -- -- 98
2018-11-10 08:00:00 7.3 0 Calma 5 Sudoeste 0 -- -- 98
2018-11-10 07:00:00 7.2 4 Oeste 7 Este 0 -- -- 99
2018-11-10 06:00:00 7.2 4 Norte 12 Oeste 0 -- -- 98
2018-11-10 05:00:00 7.1 7 Oeste 9 Oeste 0 -- -- 98
2018-11-10 04:00:00 7.4 0 Calma 9 Noroeste 0.2 -- -- 98
2018-11-10 03:00:00 7.3 3 Sudoeste 8 Este 0 -- -- 97
2018-11-10 02:00:00 7.5 4 Oeste 6 Oeste 0 -- -- 95
2018-11-10 01:00:00 7.1 3 Noroeste 8 Oeste 0 -- -- 97
2018-11-10 00:00:00 7.4 5 Nordeste 9 Nordeste 0 -- -- 96
2018-11-09 23:00:00 7.2 0 Calma 10 Noroeste 0 -- -- 96
2018-11-09 22:00:00 7.5 8 Norte 12 Norte 0 -- -- 96
2018-11-09 21:00:00 8.2 6 Noroeste 11 Oeste 0 -- -- 91
2018-11-09 20:00:00 9.6 5 Norte 9 Norte 0 -- -- 86
2018-11-09 19:00:00 11 4 Nordeste 13 Sudoeste 0 -- -- 79
2018-11-09 18:00:00 12.6 3 Oeste 14 Oeste 0 -- -- 71
2018-11-09 17:00:00 13.7 10 Sudoeste 21 Sudoeste 0 -- -- 66
2018-11-09 16:00:00 16 10 Sudoeste 14 Sudoeste 0 -- -- 61
2018-11-09 15:00:00 16.6 10 Sudoeste 14 Sur 0 -- -- 60
2018-11-09 14:00:00 15.8 8 Sudeste 20 Sudeste 0 -- -- 64
2018-11-09 13:00:00 14.8 10 Sudeste 16 Sudeste 0 -- -- 68
2018-11-09 12:00:00 13.6 9 Sudeste 14 Sudeste 0 -- -- 77
2018-11-09 11:00:00 11.6 2 Sudoeste 8 Sudeste 0 -- -- 86
2018-11-09 10:00:00 9.9 4 Norte 10 Este 0 -- -- 88
2018-11-09 09:00:00 7.2 4 Oeste 8 Norte 0 -- -- 100
2018-11-09 08:00:00 6.8 3 Norte 10 Norte 0 -- -- 97
2018-11-09 07:00:00 6.8 8 Norte 12 Norte 0 -- -- 97
2018-11-09 06:00:00 7.1 8 Norte 15 Norte 0 -- -- 95
2018-11-09 05:00:00 7.1 13 Norte 16 Norte 0.2 -- -- 94
2018-11-09 04:00:00 7.5 6 Norte 10 Noroeste 0 -- -- 94
2018-11-09 03:00:00 7.4 9 Noroeste 21 Norte 3 -- -- 97
2018-11-09 02:00:00 7.9 5 Nordeste 15 Norte 3.8 -- -- 99
2018-11-09 01:00:00 7.7 6 Nordeste 14 Nordeste 8.6 -- -- 100
2018-11-09 00:00:00 8 3 Norte 19 Oeste 4.6 -- -- 98